Time;durP1;ratioP1;P1;durP2;ratioP2;P2;SDS_P1;SDS_P2;PMS_P1;PMS_P2;Temp;Humidity;BMP_temperature;BMP_pressure;BME280_temperature;BME280_humidity;BME280_pressure;Samples;Min_cycle;Max_cycle;Signal;HPM_P1;HPM_P2
2022/10/17 00:01:18;;;;;;;21.92;13.05;;;;;;;;;;4971084;28;20121;-75
2022/10/17 00:03:43;;;;;;;23.63;12.43;;;;;;;;;;4970930;28;20038;-76
2022/10/17 00:06:12;;;;;;;18.05;11.30;;;;;;;;;;4970624;28;20493;-76
2022/10/17 00:08:39;;;;;;;17.17;11.20;;;;;;;;;;4972688;28;20027;-76
2022/10/17 00:11:17;;;;;;;19.65;11.65;;;;;;;;;;4970930;28;20034;-77
2022/10/17 00:13:43;;;;;;;14.52;10.85;;;;;;;;;;4971420;28;20030;-75
2022/10/17 00:16:08;;;;;;;19.17;11.20;;;;;;;;;;4971032;28;20478;-76
2022/10/17 00:18:34;;;;;;;18.45;10.90;;;;;;;;;;4971183;28;20054;-75
2022/10/17 00:20:59;;;;;;;19.60;11.13;;;;;;;;;;4971000;28;20023;-75
2022/10/17 00:23:27;;;;;;;20.90;13.50;;;;;;;;;;4985772;28;20347;-75
2022/10/17 00:26:00;;;;;;;16.67;10.68;;;;;;;;;;4974052;28;20041;-76
2022/10/17 00:28:26;;;;;;;21.58;11.10;;;;;;;;;;4973977;28;20045;-75
2022/10/17 00:31:01;;;;;;;18.52;11.00;;;;;;;;;;4973938;28;20667;-76
2022/10/17 00:33:27;;;;;;;16.75;10.98;;;;;;;;;;4974045;28;20042;-74
2022/10/17 00:36:08;;;;;;;20.83;10.60;;;;;;;;;;4991579;28;20030;-74
2022/10/17 00:38:35;;;;;;;20.65;10.23;;;;;;;;;;4974913;28;20046;-75
2022/10/17 00:41:00;;;;;;;19.20;10.88;;;;;;;;;;4973917;28;20030;-75
2022/10/17 00:43:26;;;;;;;22.75;10.95;;;;;;;;;;4974186;28;20454;-75
2022/10/17 00:45:52;;;;;;;18.88;11.15;;;;;;;;;;4992011;28;20022;-75
2022/10/17 00:48:18;;;;;;;19.67;11.55;;;;;;;;;;4975231;28;20106;-75
2022/10/17 00:50:47;;;;;;;15.35;10.77;;;;;;;;;;4975132;28;20479;-76
2022/10/17 00:53:14;;;;;;;16.35;10.95;;;;;;;;;;4974326;28;20034;-76
2022/10/17 00:55:51;;;;;;;19.30;12.05;;;;;;;;;;4957545;28;20034;-75
2022/10/17 00:58:18;;;;;;;20.52;11.38;;;;;;;;;;4973446;28;20038;-75
2022/10/17 01:00:47;;;;;;;19.95;10.80;;;;;;;;;;4991143;28;20037;-75
2022/10/17 01:03:13;;;;;;;20.02;12.18;;;;;;;;;;4973492;28;20517;-76
2022/10/17 01:05:40;;;;;;;20.25;10.35;;;;;;;;;;4973731;28;20042;-75
2022/10/17 01:08:07;;;;;;;20.83;11.85;;;;;;;;;;4973668;28;20041;-76
2022/10/17 01:10:48;;;;;;;21.77;13.52;;;;;;;;;;4973942;28;20444;-75
2022/10/17 01:13:29;;;;;;;20.05;12.68;;;;;;;;;;4973648;28;20078;-76
2022/10/17 01:16:08;;;;;;;22.53;12.43;;;;;;;;;;4991124;28;20026;-76
2022/10/17 01:18:45;;;;;;;18.25;12.95;;;;;;;;;;4972992;28;20436;-75
2022/10/17 01:21:29;;;;;;;23.63;12.82;;;;;;;;;;4990331;28;20070;-75
2022/10/17 01:24:32;;;;;;;19.35;12.77;;;;;;;;;;4990441;28;20042;-76
2022/10/17 01:27:28;;;;;;;23.33;13.32;;;;;;;;;;4954253;28;20041;-75
2022/10/17 01:30:22;;;;;;;24.90;14.60;;;;;;;;;;4953952;28;20507;-75
2022/10/17 01:32:56;;;;;;;25.23;14.80;;;;;;;;;;4953689;28;20487;-75
2022/10/17 01:35:27;;;;;;;25.33;16.52;;;;;;;;;;4971052;28;20023;-76
2022/10/17 01:38:01;;;;;;;28.63;16.25;;;;;;;;;;4954227;28;20030;-76
2022/10/17 01:40:35;;;;;;;28.75;16.10;;;;;;;;;;4971217;28;20110;-75
2022/10/17 01:43:28;;;;;;;22.48;14.60;;;;;;;;;;4953855;28;20037;-75
2022/10/17 01:46:02;;;;;;;23.90;14.00;;;;;;;;;;4954115;28;20050;-75
2022/10/17 01:48:36;;;;;;;23.73;15.13;;;;;;;;;;4953960;28;20027;-75
2022/10/17 01:51:23;;;;;;;24.33;13.38;;;;;;;;;;4970993;28;20023;-74
2022/10/17 01:53:56;;;;;;;24.77;13.13;;;;;;;;;;4954452;28;20027;-78
2022/10/17 01:56:26;;;;;;;21.45;13.90;;;;;;;;;;4971868;28;20084;-78
2022/10/17 01:58:59;;;;;;;29.45;15.10;;;;;;;;;;4954000;28;20037;-77
2022/10/17 02:01:27;;;;;;;21.08;13.88;;;;;;;;;;4953509;28;20030;-77
2022/10/17 02:03:55;;;;;;;21.45;14.05;;;;;;;;;;4954049;28;20030;-78
2022/10/17 02:06:20;;;;;;;24.95;14.52;;;;;;;;;;4953917;28;20228;-79
2022/10/17 02:08:49;;;;;;;25.13;14.45;;;;;;;;;;4954219;28;20022;-78
2022/10/17 02:11:23;;;;;;;27.38;14.73;;;;;;;;;;4969967;28;20373;-76
2022/10/17 02:14:37;;;;;;;22.33;13.93;;;;;;;;;;4971815;28;20670;-79
2022/10/17 02:17:02;;;;;;;25.40;15.38;;;;;;;;;;4947681;28;20037;-79
2022/10/17 02:19:54;;;;;;;21.13;14.05;;;;;;;;;;4974533;28;20051;-79
2022/10/17 02:22:42;;;;;;;23.00;13.85;;;;;;;;;;4971110;28;20039;-79
2022/10/17 02:25:34;;;;;;;27.52;15.13;;;;;;;;;;4960737;28;20049;-79
2022/10/17 02:28:12;;;;;;;24.55;14.13;;;;;;;;;;4971909;28;20042;-77
2022/10/17 02:30:40;;;;;;;19.60;13.35;;;;;;;;;;4989829;28;20040;-77
2022/10/17 02:33:40;;;;;;;21.52;13.15;;;;;;;;;;4972114;28;20104;-78
2022/10/17 02:36:12;;;;;;;23.05;12.95;;;;;;;;;;4966819;28;20092;-78
2022/10/17 02:38:41;;;;;;;21.60;13.38;;;;;;;;;;4993931;28;20077;-79
2022/10/17 02:41:10;;;;;;;22.77;12.75;;;;;;;;;;4993686;28;20044;-78
2022/10/17 02:43:37;;;;;;;23.05;13.18;;;;;;;;;;4976184;28;20121;-78
2022/10/17 02:46:04;;;;;;;24.73;13.50;;;;;;;;;;4975706;28;20080;-78
2022/10/17 02:48:39;;;;;;;22.13;13.02;;;;;;;;;;4993418;28;20101;-79
2022/10/17 02:51:11;;;;;;;23.30;13.90;;;;;;;;;;4993627;28;20036;-79
2022/10/17 02:53:59;;;;;;;22.95;14.13;;;;;;;;;;4976027;28;20030;-79
2022/10/17 02:56:27;;;;;;;22.55;13.77;;;;;;;;;;4976080;28;20116;-79
2022/10/17 02:58:56;;;;;;;25.30;14.85;;;;;;;;;;4975810;28;20044;-78
2022/10/17 03:01:22;;;;;;;23.83;13.93;;;;;;;;;;4992986;28;20026;-78
2022/10/17 03:03:48;;;;;;;30.55;14.85;;;;;;;;;;4975537;28;20031;-78
2022/10/17 03:06:13;;;;;;;24.80;14.63;;;;;;;;;;4991633;28;20128;-79
2022/10/17 03:08:39;;;;;;;24.75;14.93;;;;;;;;;;4995048;28;20458;-78
2022/10/17 03:11:04;;;;;;;27.67;15.18;;;;;;;;;;4994843;28;20029;-80
2022/10/17 03:13:30;;;;;;;28.92;14.77;;;;;;;;;;4994274;28;20580;-77
2022/10/17 03:15:56;;;;;;;33.67;17.25;;;;;;;;;;4994916;28;20038;-79
2022/10/17 03:18:22;;;;;;;26.38;15.15;;;;;;;;;;4994522;28;20455;-79
2022/10/17 03:20:47;;;;;;;33.67;17.00;;;;;;;;;;4994521;28;20044;-79
2022/10/17 03:23:13;;;;;;;27.20;15.52;;;;;;;;;;4993992;28;20048;-78
2022/10/17 03:25:39;;;;;;;30.25;15.38;;;;;;;;;;4983194;28;20038;-79
2022/10/17 03:28:05;;;;;;;29.38;15.05;;;;;;;;;;4992636;28;20105;-80
2022/10/17 03:30:31;;;;;;;37.92;15.20;;;;;;;;;;4974685;28;20033;-80
2022/10/17 03:32:57;;;;;;;28.80;14.30;;;;;;;;;;4992604;28;20034;-79
2022/10/17 03:35:23;;;;;;;24.27;14.38;;;;;;;;;;4992308;28;20034;-81
2022/10/17 03:37:48;;;;;;;25.58;14.63;;;;;;;;;;4992200;28;20108;-79
2022/10/17 03:40:14;;;;;;;23.60;13.32;;;;;;;;;;4974775;28;20034;-80
2022/10/17 03:42:39;;;;;;;24.23;13.48;;;;;;;;;;4975834;28;20137;-79
2022/10/17 03:45:05;;;;;;;25.92;12.80;;;;;;;;;;4977523;28;20076;-79
2022/10/17 03:47:31;;;;;;;24.10;11.40;;;;;;;;;;4976161;28;20406;-80
2022/10/17 03:49:56;;;;;;;21.83;11.52;;;;;;;;;;4975963;28;20080;-79
2022/10/17 03:52:22;;;;;;;26.40;12.20;;;;;;;;;;4975786;28;20605;-80
2022/10/17 03:54:49;;;;;;;24.92;15.55;;;;;;;;;;4976670;28;20497;-79
2022/10/17 03:57:15;;;;;;;27.63;14.43;;;;;;;;;;4976339;28;20042;-80
2022/10/17 03:59:40;;;;;;;28.45;14.65;;;;;;;;;;4977705;28;20065;-80
2022/10/17 04:02:06;;;;;;;31.25;14.82;;;;;;;;;;4976543;28;20120;-81
2022/10/17 04:04:31;;;;;;;23.90;14.15;;;;;;;;;;4973981;28;20045;-79
2022/10/17 04:06:57;;;;;;;32.67;14.38;;;;;;;;;;4975093;28;20426;-80
2022/10/17 04:09:22;;;;;;;27.02;14.27;;;;;;;;;;4992031;28;20038;-80
2022/10/17 04:11:48;;;;;;;19.30;12.52;;;;;;;;;;4975324;28;20509;-81
2022/10/17 04:14:14;;;;;;;28.98;18.77;;;;;;;;;;4974626;28;20113;-78
2022/10/17 04:16:41;;;;;;;24.88;15.43;;;;;;;;;;4992208;28;20539;-80
2022/10/17 04:19:09;;;;;;;27.52;15.30;;;;;;;;;;4974336;28;20034;-81
2022/10/17 04:21:35;;;;;;;39.78;18.40;;;;;;;;;;4974488;28;20057;-80
2022/10/17 04:24:00;;;;;;;39.28;18.08;;;;;;;;;;4974394;28;20077;-81
2022/10/17 04:26:26;;;;;;;36.75;20.33;;;;;;;;;;4974113;28;20046;-79
2022/10/17 04:28:52;;;;;;;34.45;18.52;;;;;;;;;;4974803;28;20030;-79
2022/10/17 04:31:18;;;;;;;32.05;18.73;;;;;;;;;;4991701;28;20129;-79
2022/10/17 04:33:46;;;;;;;34.83;17.35;;;;;;;;;;4974409;28;20034;-80
2022/10/17 04:36:14;;;;;;;38.70;18.20;;;;;;;;;;4974451;28;20433;-80
2022/10/17 04:38:40;;;;;;;36.55;20.95;;;;;;;;;;4991783;28;20030;-79
2022/10/17 04:41:09;;;;;;;39.92;18.05;;;;;;;;;;4974244;28;20104;-80
2022/10/17 04:43:36;;;;;;;38.20;18.17;;;;;;;;;;4957781;28;20050;-79
2022/10/17 04:46:05;;;;;;;37.75;18.38;;;;;;;;;;4974839;28;20030;-76
2022/10/17 04:48:31;;;;;;;41.80;18.67;;;;;;;;;;4992525;28;20031;-76
2022/10/17 04:50:59;;;;;;;36.38;19.73;;;;;;;;;;4974973;28;20108;-75
2022/10/17 04:53:25;;;;;;;38.35;18.75;;;;;;;;;;4974239;28;20034;-76
2022/10/17 04:55:52;;;;;;;40.53;20.73;;;;;;;;;;4991494;28;20026;-75
2022/10/17 04:58:18;;;;;;;37.40;21.20;;;;;;;;;;4956962;28;20078;-76
2022/10/17 05:00:44;;;;;;;34.92;20.15;;;;;;;;;;4973707;28;20066;-76
2022/10/17 05:03:09;;;;;;;39.50;20.40;;;;;;;;;;4973817;28;20085;-75
2022/10/17 05:05:40;;;;;;;44.70;22.02;;;;;;;;;;4973579;28;20034;-75
2022/10/17 05:08:07;;;;;;;45.17;19.50;;;;;;;;;;4958308;28;20034;-74
2022/10/17 05:10:38;;;;;;;59.88;28.00;;;;;;;;;;4993951;28;20038;-77
2022/10/17 05:13:06;;;;;;;37.13;20.90;;;;;;;;;;4973792;28;20041;-76
2022/10/17 05:15:32;;;;;;;34.47;20.65;;;;;;;;;;4972826;28;20022;-75
2022/10/17 05:17:57;;;;;;;42.75;21.25;;;;;;;;;;4973057;28;20038;-76
2022/10/17 05:20:24;;;;;;;42.08;22.75;;;;;;;;;;4972261;28;20084;-76
2022/10/17 05:22:49;;;;;;;48.63;24.98;;;;;;;;;;4972740;28;20517;-78
2022/10/17 05:25:15;;;;;;;41.78;21.65;;;;;;;;;;4987810;28;20027;-79
2022/10/17 05:27:40;;;;;;;42.88;21.88;;;;;;;;;;4971979;28;20034;-77
2022/10/17 05:30:10;;;;;;;45.83;20.85;;;;;;;;;;4973469;28;20027;-81
2022/10/17 05:32:36;;;;;;;41.67;20.95;;;;;;;;;;4972437;28;20030;-79
2022/10/17 05:35:03;;;;;;;42.38;21.42;;;;;;;;;;4990875;28;20034;-81
2022/10/17 05:37:29;;;;;;;37.92;21.17;;;;;;;;;;4989925;28;20038;-80
2022/10/17 05:39:55;;;;;;;43.95;21.65;;;;;;;;;;4986286;28;20034;-79
2022/10/17 05:42:24;;;;;;;42.83;21.80;;;;;;;;;;4959427;28;20030;-79
2022/10/17 05:44:49;;;;;;;41.00;20.02;;;;;;;;;;4960898;28;20038;-75
2022/10/17 05:47:16;;;;;;;38.13;21.35;;;;;;;;;;4964455;28;20125;-77
2022/10/17 05:49:41;;;;;;;36.33;18.90;;;;;;;;;;4984036;28;20038;-78
2022/10/17 05:52:07;;;;;;;35.85;17.73;;;;;;;;;;4982790;28;20097;-76
2022/10/17 05:54:32;;;;;;;32.70;17.73;;;;;;;;;;4983019;28;20031;-79
2022/10/17 05:56:58;;;;;;;31.90;16.73;;;;;;;;;;4963034;28;20431;-77
2022/10/17 05:59:24;;;;;;;33.15;16.45;;;;;;;;;;4983431;28;20036;-77
2022/10/17 06:01:50;;;;;;;25.63;15.75;;;;;;;;;;4983579;28;20042;-76
2022/10/17 06:04:16;;;;;;;34.50;18.02;;;;;;;;;;4971439;28;20044;-78
2022/10/17 06:06:43;;;;;;;35.78;17.70;;;;;;;;;;4974546;28;20038;-77
2022/10/17 06:09:09;;;;;;;28.08;15.88;;;;;;;;;;4972796;28;20127;-81
2022/10/17 06:11:35;;;;;;;31.15;16.23;;;;;;;;;;4990249;28;20490;-78
2022/10/17 06:14:01;;;;;;;31.58;16.60;;;;;;;;;;4976543;28;20049;-79
2022/10/17 06:16:27;;;;;;;35.60;16.90;;;;;;;;;;4992476;28;20054;-79
2022/10/17 06:19:02;;;;;;;33.58;17.63;;;;;;;;;;4967327;28;20570;-75
2022/10/17 06:21:35;;;;;;;36.13;18.17;;;;;;;;;;4971469;28;20730;-80
2022/10/17 06:24:01;;;;;;;34.22;18.63;;;;;;;;;;4988511;28;20050;-75
2022/10/17 06:26:26;;;;;;;40.58;21.67;;;;;;;;;;4986657;28;20033;-77
2022/10/17 06:28:53;;;;;;;42.95;20.75;;;;;;;;;;4990736;28;20437;-81
2022/10/17 06:31:19;;;;;;;50.40;22.63;;;;;;;;;;4971999;28;20085;-77
2022/10/17 06:33:45;;;;;;;45.55;25.05;;;;;;;;;;4968276;28;20044;-76
2022/10/17 06:36:12;;;;;;;44.47;23.77;;;;;;;;;;4969668;28;20042;-79
2022/10/17 06:38:39;;;;;;;41.60;22.52;;;;;;;;;;4947528;28;20040;-77
2022/10/17 06:41:18;;;;;;;48.33;24.77;;;;;;;;;;4987780;28;20111;-77
2022/10/17 06:43:45;;;;;;;43.42;24.77;;;;;;;;;;4986688;28;20100;-78
2022/10/17 06:46:16;;;;;;;48.33;25.40;;;;;;;;;;4967098;28;20447;-79
2022/10/17 06:48:43;;;;;;;57.28;29.58;;;;;;;;;;4973288;28;20077;-77
2022/10/17 06:51:10;;;;;;;54.38;29.17;;;;;;;;;;4992380;28;20092;-79
2022/10/17 06:53:40;;;;;;;57.67;27.92;;;;;;;;;;4973952;28;20030;-79
2022/10/17 06:56:08;;;;;;;49.72;26.73;;;;;;;;;;4954606;28;20034;-79
2022/10/17 06:58:37;;;;;;;55.15;28.25;;;;;;;;;;4969471;28;20033;-78
2022/10/17 07:01:13;;;;;;;56.65;27.05;;;;;;;;;;4992012;28;20125;-79
2022/10/17 07:03:40;;;;;;;55.10;30.20;;;;;;;;;;4963620;28;20125;-80
2022/10/17 07:06:06;;;;;;;51.65;28.17;;;;;;;;;;4958919;28;20085;-82
2022/10/17 07:08:32;;;;;;;49.42;27.73;;;;;;;;;;4979219;28;20034;-80
2022/10/17 07:10:58;;;;;;;50.25;29.05;;;;;;;;;;4974154;28;20042;-78
2022/10/17 07:13:24;;;;;;;56.67;27.17;;;;;;;;;;4978481;28;20032;-76
2022/10/17 07:15:50;;;;;;;51.78;28.33;;;;;;;;;;4973029;28;20027;-78
2022/10/17 07:18:15;;;;;;;51.35;29.05;;;;;;;;;;4955261;28;20044;-75
2022/10/17 07:20:42;;;;;;;48.40;28.10;;;;;;;;;;4973589;28;20025;-81
2022/10/17 07:23:07;;;;;;;51.10;28.98;;;;;;;;;;4969676;28;20065;-82
2022/10/17 07:25:33;;;;;;;53.10;30.33;;;;;;;;;;4968833;28;20128;-76
2022/10/17 07:27:58;;;;;;;55.05;29.67;;;;;;;;;;4967544;28;20462;-78
2022/10/17 07:30:25;;;;;;;51.20;29.50;;;;;;;;;;4965829;28;20049;-78
2022/10/17 07:32:53;;;;;;;56.30;29.63;;;;;;;;;;4968199;28;20391;-77
2022/10/17 07:35:20;;;;;;;59.38;31.00;;;;;;;;;;4970084;28;20028;-74
2022/10/17 07:37:46;;;;;;;65.60;34.72;;;;;;;;;;4942269;28;20054;-77
2022/10/17 07:40:13;;;;;;;57.17;31.55;;;;;;;;;;4965831;28;20049;-80
2022/10/17 07:42:41;;;;;;;64.05;32.85;;;;;;;;;;4967246;28;20648;-79
2022/10/17 07:45:07;;;;;;;57.35;32.30;;;;;;;;;;4959543;28;20037;-79
2022/10/17 07:47:34;;;;;;;60.22;32.88;;;;;;;;;;4959203;28;20522;-76
2022/10/17 07:50:03;;;;;;;57.88;32.22;;;;;;;;;;4963303;28;20023;-77
2022/10/17 07:52:28;;;;;;;58.70;32.15;;;;;;;;;;4951360;28;20035;-77
2022/10/17 07:54:56;;;;;;;57.78;31.20;;;;;;;;;;4968429;28;20045;-78
2022/10/17 07:57:21;;;;;;;59.42;32.15;;;;;;;;;;4964297;28;20058;-78
2022/10/17 07:59:47;;;;;;;59.08;30.98;;;;;;;;;;4960809;28;20045;-79
2022/10/17 08:02:22;;;;;;;64.38;30.90;;;;;;;;;;4970355;28;20053;-79
2022/10/17 08:04:48;;;;;;;57.75;29.80;;;;;;;;;;4983800;28;20085;-80
2022/10/17 08:07:15;;;;;;;58.90;30.33;;;;;;;;;;4956010;28;20045;-82
2022/10/17 08:09:40;;;;;;;53.05;30.67;;;;;;;;;;4957218;28;20742;-84
2022/10/17 08:12:06;;;;;;;57.42;29.40;;;;;;;;;;4964706;28;20039;-83
2022/10/17 08:14:35;;;;;;;53.88;31.02;;;;;;;;;;4965219;28;20027;-84
2022/10/17 08:17:03;;;;;;;57.20;30.73;;;;;;;;;;4956891;28;20325;-77
2022/10/17 08:19:29;;;;;;;55.80;29.95;;;;;;;;;;4975372;28;20426;-79
2022/10/17 08:21:57;;;;;;;59.13;31.30;;;;;;;;;;4966742;28;20037;-82
2022/10/17 08:24:24;;;;;;;55.35;28.92;;;;;;;;;;4967002;28;20314;-81
2022/10/17 08:26:52;;;;;;;59.13;31.42;;;;;;;;;;4967606;28;20504;-82
2022/10/17 08:29:18;;;;;;;52.50;29.35;;;;;;;;;;4975077;28;20049;-77
2022/10/17 08:31:44;;;;;;;53.83;29.95;;;;;;;;;;4969957;28;20403;-78
2022/10/17 08:34:11;;;;;;;61.30;30.70;;;;;;;;;;4969342;28;20120;-80
2022/10/17 08:36:36;;;;;;;59.30;30.85;;;;;;;;;;4964991;28;20041;-81
2022/10/17 08:39:03;;;;;;;54.95;30.25;;;;;;;;;;4986404;28;20029;-81
2022/10/17 08:41:38;;;;;;;50.10;29.27;;;;;;;;;;4983321;28;20416;-81
2022/10/17 08:44:38;;;;;;;51.60;29.08;;;;;;;;;;4961009;28;20082;-78
2022/10/17 08:47:10;;;;;;;57.05;30.33;;;;;;;;;;4963150;28;20034;-80
2022/10/17 08:49:58;;;;;;;63.83;32.13;;;;;;;;;;4983555;28;20026;-79
2022/10/17 08:52:32;;;;;;;68.45;33.20;;;;;;;;;;4977442;28;20046;-80
2022/10/17 08:54:58;;;;;;;59.22;31.35;;;;;;;;;;4986990;28;20144;-83
2022/10/17 08:57:32;;;;;;;55.53;31.20;;;;;;;;;;4982641;28;20100;-79
2022/10/17 08:59:57;;;;;;;53.00;30.25;;;;;;;;;;4960582;28;20122;-79
2022/10/17 09:02:53;;;;;;;61.20;31.52;;;;;;;;;;4984372;28;20029;-77
2022/10/17 09:05:46;;;;;;;54.17;29.48;;;;;;;;;;4967436;28;21821;-78
2022/10/17 09:08:36;;;;;;;53.28;27.80;;;;;;;;;;4973721;28;20049;-76
2022/10/17 09:11:24;;;;;;;45.75;28.50;;;;;;;;;;4963513;28;20470;-77
2022/10/17 09:14:10;;;;;;;53.05;28.52;;;;;;;;;;4984631;28;20034;-77
2022/10/17 09:16:48;;;;;;;55.83;30.08;;;;;;;;;;4969491;28;20893;-76
2022/10/17 09:20:12;;;;;;;48.75;28.48;;;;;;;;;;4970260;28;20624;-76
2022/10/17 09:23:10;;;;;;;55.00;30.88;;;;;;;;;;4924341;28;21275;-78
2022/10/17 09:25:47;;;;;;;52.50;28.80;;;;;;;;;;4937448;28;20742;-76
2022/10/17 09:28:40;;;;;;;55.22;30.63;;;;;;;;;;4958160;28;20038;-78
2022/10/17 09:31:32;;;;;;;60.08;30.60;;;;;;;;;;4962305;28;20038;-76
2022/10/17 09:34:01;;;;;;;50.00;28.98;;;;;;;;;;4963229;28;20042;-75
2022/10/17 09:36:29;;;;;;;57.70;31.90;;;;;;;;;;4987560;28;20488;-79
2022/10/17 09:38:58;;;;;;;55.47;30.20;;;;;;;;;;4985289;28;20031;-76
2022/10/17 09:41:36;;;;;;;57.20;30.75;;;;;;;;;;4984940;28;20030;-76
2022/10/17 09:44:22;;;;;;;62.38;31.20;;;;;;;;;;4971472;28;20033;-77
2022/10/17 09:47:10;;;;;;;51.90;30.45;;;;;;;;;;4970843;28;20042;-76
2022/10/17 09:49:44;;;;;;;51.55;28.35;;;;;;;;;;4963450;28;20030;-76
2022/10/17 09:52:21;;;;;;;49.70;29.70;;;;;;;;;;4990249;28;20685;-76
2022/10/17 09:54:51;;;;;;;54.28;32.13;;;;;;;;;;4970745;28;20026;-77
2022/10/17 09:57:19;;;;;;;50.13;28.88;;;;;;;;;;4985519;28;20135;-77
2022/10/17 10:00:00;;;;;;;45.33;28.02;;;;;;;;;;4968142;28;20029;-75
2022/10/17 10:02:30;;;;;;;47.45;28.27;;;;;;;;;;4955517;28;20045;-79
2022/10/17 10:05:17;;;;;;;53.45;27.92;;;;;;;;;;4972735;28;20063;-73
2022/10/17 10:08:03;;;;;;;47.03;27.27;;;;;;;;;;4978364;28;20116;-78
2022/10/17 10:10:30;;;;;;;46.20;27.13;;;;;;;;;;4969774;28;20034;-75
2022/10/17 10:13:19;;;;;;;50.05;28.30;;;;;;;;;;4985533;28;20092;-76
2022/10/17 10:15:48;;;;;;;50.70;28.40;;;;;;;;;;4973480;28;20108;-76
2022/10/17 10:18:28;;;;;;;47.10;28.27;;;;;;;;;;4969528;28;20034;-80
2022/10/17 10:21:08;;;;;;;45.58;25.75;;;;;;;;;;4965584;28;20030;-74
2022/10/17 10:23:39;;;;;;;47.25;26.83;;;;;;;;;;4965928;28;20089;-77
2022/10/17 10:26:18;;;;;;;;;;;;;;;;;;4981014;28;20038;-79
2022/10/17 10:28:56;;;;;;;42.17;26.00;;;;;;;;;;4968690;28;19921;-76
2022/10/17 10:31:28;;;;;;;51.78;29.00;;;;;;;;;;4994699;28;20026;-78
2022/10/17 10:33:54;;;;;;;56.03;30.65;;;;;;;;;;4980410;28;20034;-78
2022/10/17 10:36:22;;;;;;;48.15;28.75;;;;;;;;;;4974195;28;20101;-77
2022/10/17 10:38:55;;;;;;;48.60;28.65;;;;;;;;;;4970681;28;21038;-74
2022/10/17 10:41:21;;;;;;;49.78;27.30;;;;;;;;;;4988290;28;20088;-77
2022/10/17 10:43:49;;;;;;;50.70;30.52;;;;;;;;;;4990061;28;20463;-75
2022/10/17 10:46:18;;;;;;;48.83;27.13;;;;;;;;;;4971638;28;20050;-76
2022/10/17 10:49:00;;;;;;;42.47;25.65;;;;;;;;;;4967054;28;20365;-78
2022/10/17 10:51:32;;;;;;;47.83;28.20;;;;;;;;;;4987145;28;20058;-79
2022/10/17 10:54:16;;;;;;;48.30;27.77;;;;;;;;;;4973068;28;20130;-77
2022/10/17 10:56:47;;;;;;;49.67;29.00;;;;;;;;;;4988097;28;20553;-79
2022/10/17 10:59:25;;;;;;;45.70;27.70;;;;;;;;;;4976877;28;20041;-77
2022/10/17 11:02:19;;;;;;;47.03;27.63;;;;;;;;;;4982888;28;20100;-79
2022/10/17 11:04:56;;;;;;;48.33;28.70;;;;;;;;;;4966701;28;20042;-79
2022/10/17 11:07:37;;;;;;;41.80;25.70;;;;;;;;;;4976692;28;20718;-77
2022/10/17 11:10:27;;;;;;;44.97;26.67;;;;;;;;;;4991891;28;20031;-82
2022/10/17 11:13:12;;;;;;;47.60;26.35;;;;;;;;;;4991482;28;20597;-78
2022/10/17 11:16:19;;;;;;;43.10;27.00;;;;;;;;;;4978685;28;20038;-79
2022/10/17 11:18:50;;;;;;;46.58;25.90;;;;;;;;;;4985147;28;20569;-78
2022/10/17 11:21:28;;;;;;;44.63;26.20;;;;;;;;;;4997698;28;20042;-82
2022/10/17 11:24:15;;;;;;;44.78;25.23;;;;;;;;;;4999643;28;20064;-80
2022/10/17 11:27:02;;;;;;;38.33;23.67;;;;;;;;;;4998173;28;20045;-81
2022/10/17 11:29:33;;;;;;;33.75;21.58;;;;;;;;;;4971913;28;20545;-80
2022/10/17 11:32:52;;;;;;;40.30;21.85;;;;;;;;;;4983144;28;20435;-78
2022/10/17 11:35:45;;;;;;;34.33;22.00;;;;;;;;;;4945279;28;20044;-80
2022/10/17 11:38:33;;;;;;;38.08;23.00;;;;;;;;;;4964707;28;20409;-81
2022/10/17 11:41:46;;;;;;;36.65;22.33;;;;;;;;;;4988390;28;20018;-80
2022/10/17 11:44:21;;;;;;;34.00;21.23;;;;;;;;;;4997039;28;20141;-79
2022/10/17 11:46:58;;;;;;;32.38;19.95;;;;;;;;;;4972305;28;20541;-80
2022/10/17 11:49:34;;;;;;;29.55;20.40;;;;;;;;;;4979890;28;20040;-80
2022/10/17 11:52:30;;;;;;;34.70;21.13;;;;;;;;;;4977752;28;20038;-79
2022/10/17 11:55:07;;;;;;;35.50;21.45;;;;;;;;;;4975416;28;20042;-80
2022/10/17 11:57:58;;;;;;;37.70;23.08;;;;;;;;;;4953885;28;20034;-80
2022/10/17 12:01:03;;;;;;;34.85;22.38;;;;;;;;;;4997860;28;20026;-79
2022/10/17 12:03:54;;;;;;;36.88;21.45;;;;;;;;;;4994166;28;20022;-79
2022/10/17 12:06:35;;;;;;;40.47;23.15;;;;;;;;;;4976741;28;20034;-79
2022/10/17 12:09:07;;;;;;;33.60;20.98;;;;;;;;;;4975264;28;20029;-77
2022/10/17 12:11:52;;;;;;;33.30;19.85;;;;;;;;;;4978670;28;20046;-82
2022/10/17 12:14:41;;;;;;;33.53;21.85;;;;;;;;;;4980939;28;20030;-81
2022/10/17 12:17:39;;;;;;;32.00;17.70;;;;;;;;;;4975896;28;20151;-79
2022/10/17 12:20:33;;;;;;;27.83;17.27;;;;;;;;;;4993518;28;20085;-81
2022/10/17 12:23:14;;;;;;;29.30;17.55;;;;;;;;;;4974052;28;20048;-80
2022/10/17 12:26:09;;;;;;;39.35;20.40;;;;;;;;;;4978935;28;20034;-80
2022/10/17 12:28:47;;;;;;;24.98;17.50;;;;;;;;;;4962419;28;20031;-76
2022/10/17 12:31:24;;;;;;;29.73;19.17;;;;;;;;;;4969159;28;20784;-82
2022/10/17 12:34:14;;;;;;;30.52;18.63;;;;;;;;;;4977512;28;20026;-79
2022/10/17 12:36:41;;;;;;;31.17;19.05;;;;;;;;;;4973151;28;20034;-81
2022/10/17 12:39:13;;;;;;;31.92;18.23;;;;;;;;;;4977259;28;20030;-81
2022/10/17 12:41:43;;;;;;;28.80;18.42;;;;;;;;;;4977552;28;20030;-79
2022/10/17 12:44:12;;;;;;;35.30;23.23;;;;;;;;;;4978757;28;20046;-80
2022/10/17 12:46:57;;;;;;;25.85;19.00;;;;;;;;;;4977552;28;20060;-81
2022/10/17 12:49:49;;;;;;;34.10;21.10;;;;;;;;;;4975224;28;20089;-80
2022/10/17 12:52:33;;;;;;;23.75;16.33;;;;;;;;;;4967496;28;20114;-80
2022/10/17 12:55:13;;;;;;;26.27;18.17;;;;;;;;;;4978845;28;20019;-81
2022/10/17 12:57:46;;;;;;;32.17;16.88;;;;;;;;;;4972850;28;20138;-79
2022/10/17 13:00:18;;;;;;;27.40;17.08;;;;;;;;;;4969760;28;20054;-79
2022/10/17 13:02:44;;;;;;;29.70;17.60;;;;;;;;;;4973540;28;20081;-81
2022/10/17 13:05:17;;;;;;;33.13;17.65;;;;;;;;;;4974118;28;20031;-79
2022/10/17 13:07:45;;;;;;;30.70;17.60;;;;;;;;;;4958930;28;20030;-80
2022/10/17 13:10:44;;;;;;;29.73;16.55;;;;;;;;;;4981882;28;20221;-84
2022/10/17 13:13:51;;;;;;;28.25;17.27;;;;;;;;;;4978388;28;20069;-81
2022/10/17 13:16:30;;;;;;;26.95;17.75;;;;;;;;;;4976339;28;20027;-79
2022/10/17 13:19:16;;;;;;;26.08;17.50;;;;;;;;;;4974431;28;20049;-81
2022/10/17 13:22:02;;;;;;;36.33;19.23;;;;;;;;;;4974012;28;20046;-80
2022/10/17 13:24:37;;;;;;;39.25;21.55;;;;;;;;;;4966314;28;20462;-80
2022/10/17 13:27:24;;;;;;;39.92;21.52;;;;;;;;;;4974881;28;20133;-82
2022/10/17 13:29:50;;;;;;;27.10;18.73;;;;;;;;;;4980390;28;20120;-81
2022/10/17 13:32:16;;;;;;;25.52;17.38;;;;;;;;;;4956428;28;20108;-79
2022/10/17 13:34:43;;;;;;;29.25;18.58;;;;;;;;;;4972386;28;20019;-80
2022/10/17 13:37:41;;;;;;;29.73;17.65;;;;;;;;;;4958393;28;20042;-80
2022/10/17 13:40:19;;;;;;;26.88;15.98;;;;;;;;;;4976117;28;20061;-79
2022/10/17 13:42:45;;;;;;;35.20;18.63;;;;;;;;;;4947246;28;20038;-81
2022/10/17 13:45:36;;;;;;;26.77;17.63;;;;;;;;;;4973912;28;20117;-79
2022/10/17 13:48:15;;;;;;;26.48;17.58;;;;;;;;;;4971348;28;20378;-82
2022/10/17 13:50:41;;;;;;;29.70;17.63;;;;;;;;;;4975520;28;20022;-80
2022/10/17 13:53:50;;;;;;;23.55;16.23;;;;;;;;;;4967734;28;20030;-78
2022/10/17 13:56:28;;;;;;;26.30;15.93;;;;;;;;;;4949392;28;20072;-80
2022/10/17 13:59:02;;;;;;;30.67;18.70;;;;;;;;;;4934446;28;20677;-78
2022/10/17 14:01:29;;;;;;;24.20;15.98;;;;;;;;;;4960136;28;20054;-81
2022/10/17 14:03:55;;;;;;;58.22;24.88;;;;;;;;;;4971665;28;20058;-79
2022/10/17 14:06:26;;;;;;;31.58;18.90;;;;;;;;;;4962085;28;20019;-79
2022/10/17 14:08:58;;;;;;;;;;;;;;;;;;4972449;28;20044;-79
2022/10/17 14:11:37;;;;;;;28.35;18.27;;;;;;;;;;4972784;28;19918;-81
2022/10/17 14:14:06;;;;;;;35.63;19.88;;;;;;;;;;4967531;28;20165;-84
2022/10/17 14:16:52;;;;;;;28.45;16.25;;;;;;;;;;4966329;28;20023;-81
2022/10/17 14:19:26;;;;;;;28.65;16.15;;;;;;;;;;4965758;28;20660;-78
2022/10/17 14:21:55;;;;;;;51.95;22.90;;;;;;;;;;4966190;28;20038;-79
2022/10/17 14:24:28;;;;;;;42.28;20.52;;;;;;;;;;4964055;28;20066;-78
2022/10/17 14:26:58;;;;;;;36.80;19.80;;;;;;;;;;4969409;28;20077;-84
2022/10/17 14:29:31;;;;;;;32.58;19.20;;;;;;;;;;4971133;28;20158;-81
2022/10/17 14:32:11;;;;;;;29.38;17.65;;;;;;;;;;4969516;28;20023;-78
2022/10/17 14:34:40;;;;;;;32.20;19.17;;;;;;;;;;4974341;28;20030;-82
2022/10/17 14:37:11;;;;;;;30.58;17.75;;;;;;;;;;4969323;28;20131;-79
2022/10/17 14:39:38;;;;;;;29.75;17.38;;;;;;;;;;4976491;28;21083;-81
2022/10/17 14:42:03;;;;;;;36.17;21.13;;;;;;;;;;4968649;28;20384;-80
2022/10/17 14:44:34;;;;;;;37.30;21.05;;;;;;;;;;4972145;28;20039;-79
2022/10/17 14:47:04;;;;;;;33.67;17.83;;;;;;;;;;4975028;28;20085;-83
2022/10/17 14:49:41;;;;;;;25.83;17.00;;;;;;;;;;4974516;28;20190;-80
2022/10/17 14:52:16;;;;;;;28.50;16.52;;;;;;;;;;4984130;28;20372;-81
2022/10/17 14:54:49;;;;;;;33.90;18.50;;;;;;;;;;4971973;28;20030;-82